sensor_id;sensor_type;location;lat;lon;timestamp;temperature;humidity
947;DHT22;460;48.734;9.152;2023-03-23T00:01:32;12.30;69.50
947;DHT22;460;48.734;9.152;2023-03-23T00:04:03;12.30;69.10
947;DHT22;460;48.734;9.152;2023-03-23T00:06:30;12.30;69.30
947;DHT22;460;48.734;9.152;2023-03-23T00:09:05;12.30;68.10
947;DHT22;460;48.734;9.152;2023-03-23T00:11:33;12.30;68.10
947;DHT22;460;48.734;9.152;2023-03-23T00:14:01;12.30;69.00
947;DHT22;460;48.734;9.152;2023-03-23T00:16:30;12.30;69.00
947;DHT22;460;48.734;9.152;2023-03-23T00:19:07;12.30;68.90
947;DHT22;460;48.734;9.152;2023-03-23T00:21:36;12.30;69.00
947;DHT22;460;48.734;9.152;2023-03-23T00:24:06;12.30;69.70
947;DHT22;460;48.734;9.152;2023-03-23T00:26:36;12.30;69.50
947;DHT22;460;48.734;9.152;2023-03-23T00:29:07;12.30;69.40
947;DHT22;460;48.734;9.152;2023-03-23T00:31:34;12.30;69.70
947;DHT22;460;48.734;9.152;2023-03-23T00:34:02;12.30;69.70
947;DHT22;460;48.734;9.152;2023-03-23T00:36:30;12.30;68.50
947;DHT22;460;48.734;9.152;2023-03-23T00:38:58;12.30;68.90
947;DHT22;460;48.734;9.152;2023-03-23T00:41:26;12.30;69.10
947;DHT22;460;48.734;9.152;2023-03-23T00:43:56;12.70;69.00
947;DHT22;460;48.734;9.152;2023-03-23T00:46:23;12.20;68.90
947;DHT22;460;48.734;9.152;2023-03-23T00:48:50;12.40;68.90
947;DHT22;460;48.734;9.152;2023-03-23T00:51:17;12.30;68.60
947;DHT22;460;48.734;9.152;2023-03-23T00:53:50;12.30;76.20
947;DHT22;460;48.734;9.152;2023-03-23T00:56:16;12.30;69.00
947;DHT22;460;48.734;9.152;2023-03-23T00:58:44;12.30;68.70
947;DHT22;460;48.734;9.152;2023-03-23T01:01:12;12.20;68.20
947;DHT22;460;48.734;9.152;2023-03-23T01:03:43;12.30;69.20
947;DHT22;460;48.734;9.152;2023-03-23T01:06:11;12.20;68.70
947;DHT22;460;48.734;9.152;2023-03-23T01:08:39;12.20;69.00
947;DHT22;460;48.734;9.152;2023-03-23T01:11:12;12.20;68.70
947;DHT22;460;48.734;9.152;2023-03-23T01:13:43;12.30;68.80
947;DHT22;460;48.734;9.152;2023-03-23T01:16:11;12.30;70.30
947;DHT22;460;48.734;9.152;2023-03-23T01:18:39;12.20;68.90
947;DHT22;460;48.734;9.152;2023-03-23T01:21:07;12.20;68.40
947;DHT22;460;48.734;9.152;2023-03-23T01:23:37;12.20;69.00
947;DHT22;460;48.734;9.152;2023-03-23T01:26:05;12.20;69.10
947;DHT22;460;48.734;9.152;2023-03-23T01:28:32;12.20;69.60
947;DHT22;460;48.734;9.152;2023-03-23T01:31:01;12.10;68.90
947;DHT22;460;48.734;9.152;2023-03-23T01:33:38;12.20;69.10
947;DHT22;460;48.734;9.152;2023-03-23T01:36:06;12.20;69.50
947;DHT22;460;48.734;9.152;2023-03-23T01:38:34;12.20;69.70
947;DHT22;460;48.734;9.152;2023-03-23T01:41:02;12.10;69.60
947;DHT22;460;48.734;9.152;2023-03-23T01:43:34;12.20;69.40
947;DHT22;460;48.734;9.152;2023-03-23T01:46:01;12.10;69.60
947;DHT22;460;48.734;9.152;2023-03-23T01:48:31;12.10;69.20
947;DHT22;460;48.734;9.152;2023-03-23T01:51:02;12.10;70.00
947;DHT22;460;48.734;9.152;2023-03-23T01:53:37;12.10;70.10
947;DHT22;460;48.734;9.152;2023-03-23T01:56:06;12.10;69.30
947;DHT22;460;48.734;9.152;2023-03-23T01:58:39;12.10;69.40
947;DHT22;460;48.734;9.152;2023-03-23T02:01:10;12.10;69.20
947;DHT22;460;48.734;9.152;2023-03-23T02:03:42;12.10;69.70
947;DHT22;460;48.734;9.152;2023-03-23T02:06:10;12.10;69.60
947;DHT22;460;48.734;9.152;2023-03-23T02:08:38;12.10;69.80
947;DHT22;460;48.734;9.152;2023-03-23T02:11:21;12.10;69.80
947;DHT22;460;48.734;9.152;2023-03-23T02:13:50;12.20;69.70
947;DHT22;460;48.734;9.152;2023-03-23T02:16:25;12.20;69.30
947;DHT22;460;48.734;9.152;2023-03-23T02:22:30;12.20;69.70
947;DHT22;460;48.734;9.152;2023-03-23T02:25:24;12.20;70.00
947;DHT22;460;48.734;9.152;2023-03-23T02:28:13;12.20;70.20
947;DHT22;460;48.734;9.152;2023-03-23T02:30:52;12.20;75.90
947;DHT22;460;48.734;9.152;2023-03-23T02:33:36;12.20;70.50
947;DHT22;460;48.734;9.152;2023-03-23T02:36:12;12.20;69.90
947;DHT22;460;48.734;9.152;2023-03-23T02:38:47;12.20;70.60
947;DHT22;460;48.734;9.152;2023-03-23T02:41:28;12.20;70.50
947;DHT22;460;48.734;9.152;2023-03-23T02:43:57;12.20;70.50
947;DHT22;460;48.734;9.152;2023-03-23T02:46:26;12.10;71.10
947;DHT22;460;48.734;9.152;2023-03-23T02:48:59;12.10;71.90
947;DHT22;460;48.734;9.152;2023-03-23T02:51:28;12.10;71.80
947;DHT22;460;48.734;9.152;2023-03-23T02:53:56;12.10;71.50
947;DHT22;460;48.734;9.152;2023-03-23T02:56:26;12.10;71.70
947;DHT22;460;48.734;9.152;2023-03-23T02:58:56;12.00;71.90
947;DHT22;460;48.734;9.152;2023-03-23T03:01:50;12.00;71.80
947;DHT22;460;48.734;9.152;2023-03-23T03:04:22;12.00;72.00
947;DHT22;460;48.734;9.152;2023-03-23T03:07:02;12.00;72.20
947;DHT22;460;48.734;9.152;2023-03-23T03:09:40;12.00;72.10
947;DHT22;460;48.734;9.152;2023-03-23T03:12:12;12.00;72.40
947;DHT22;460;48.734;9.152;2023-03-23T03:14:45;12.00;72.20
947;DHT22;460;48.734;9.152;2023-03-23T03:17:19;12.10;72.20
947;DHT22;460;48.734;9.152;2023-03-23T03:19:52;12.00;71.80
947;DHT22;460;48.734;9.152;2023-03-23T03:22:23;12.10;72.20
947;DHT22;460;48.734;9.152;2023-03-23T03:24:56;12.10;71.40
947;DHT22;460;48.734;9.152;2023-03-23T03:27:25;12.10;71.40
947;DHT22;460;48.734;9.152;2023-03-23T03:29:56;12.10;71.30
947;DHT22;460;48.734;9.152;2023-03-23T03:32:39;12.10;71.70
947;DHT22;460;48.734;9.152;2023-03-23T03:35:10;12.10;71.20
947;DHT22;460;48.734;9.152;2023-03-23T03:37:39;12.10;71.50
947;DHT22;460;48.734;9.152;2023-03-23T03:40:09;12.20;71.70
947;DHT22;460;48.734;9.152;2023-03-23T03:42:39;12.20;70.90
947;DHT22;460;48.734;9.152;2023-03-23T03:45:08;12.20;71.80
947;DHT22;460;48.734;9.152;2023-03-23T03:47:36;12.20;72.40
947;DHT22;460;48.734;9.152;2023-03-23T03:50:04;12.30;72.30
947;DHT22;460;48.734;9.152;2023-03-23T03:52:34;12.20;72.80
947;DHT22;460;48.734;9.152;2023-03-23T03:55:03;12.20;72.50
947;DHT22;460;48.734;9.152;2023-03-23T03:57:31;12.20;72.50
947;DHT22;460;48.734;9.152;2023-03-23T03:59:58;12.20;72.60
947;DHT22;460;48.734;9.152;2023-03-23T04:02:34;12.20;71.90
947;DHT22;460;48.734;9.152;2023-03-23T04:05:02;11.90;79.40
947;DHT22;460;48.734;9.152;2023-03-23T04:07:32;12.20;72.30
947;DHT22;460;48.734;9.152;2023-03-23T04:10:08;12.30;72.50
947;DHT22;460;48.734;9.152;2023-03-23T04:12:36;12.20;72.70
947;DHT22;460;48.734;9.152;2023-03-23T04:15:03;12.20;73.80
947;DHT22;460;48.734;9.152;2023-03-23T04:17:31;12.20;73.20
947;DHT22;460;48.734;9.152;2023-03-23T04:19:58;12.20;72.30
947;DHT22;460;48.734;9.152;2023-03-23T04:22:38;12.10;73.50
947;DHT22;460;48.734;9.152;2023-03-23T04:25:10;12.10;74.30
947;DHT22;460;48.734;9.152;2023-03-23T04:27:38;12.20;72.70
947;DHT22;460;48.734;9.152;2023-03-23T04:30:18;12.20;73.30
947;DHT22;460;48.734;9.152;2023-03-23T04:32:46;12.20;73.00
947;DHT22;460;48.734;9.152;2023-03-23T04:35:16;12.20;73.30
947;DHT22;460;48.734;9.152;2023-03-23T04:37:46;12.20;73.50
947;DHT22;460;48.734;9.152;2023-03-23T04:40:13;12.20;73.70
947;DHT22;460;48.734;9.152;2023-03-23T04:42:41;12.20;74.40
947;DHT22;460;48.734;9.152;2023-03-23T04:45:12;12.10;75.70
947;DHT22;460;48.734;9.152;2023-03-23T04:47:45;12.20;73.50
947;DHT22;460;48.734;9.152;2023-03-23T04:50:19;12.20;74.00
947;DHT22;460;48.734;9.152;2023-03-23T04:52:48;12.20;74.50
947;DHT22;460;48.734;9.152;2023-03-23T04:55:18;12.20;74.00
947;DHT22;460;48.734;9.152;2023-03-23T04:57:45;12.30;74.30
947;DHT22;460;48.734;9.152;2023-03-23T05:00:13;12.20;74.50
947;DHT22;460;48.734;9.152;2023-03-23T05:02:42;12.30;73.40
947;DHT22;460;48.734;9.152;2023-03-23T05:05:10;12.20;74.90
947;DHT22;460;48.734;9.152;2023-03-23T05:07:38;12.20;74.40
947;DHT22;460;48.734;9.152;2023-03-23T05:10:09;12.20;75.40
947;DHT22;460;48.734;9.152;2023-03-23T05:12:36;12.20;76.10
947;DHT22;460;48.734;9.152;2023-03-23T05:15:04;12.10;77.90
947;DHT22;460;48.734;9.152;2023-03-23T05:17:35;12.10;76.90
947;DHT22;460;48.734;9.152;2023-03-23T05:20:06;12.30;80.70
947;DHT22;460;48.734;9.152;2023-03-23T05:22:34;12.20;75.50
947;DHT22;460;48.734;9.152;2023-03-23T05:25:02;12.30;74.70
947;DHT22;460;48.734;9.152;2023-03-23T05:27:37;12.30;74.70
947;DHT22;460;48.734;9.152;2023-03-23T05:30:08;12.30;73.90
947;DHT22;460;48.734;9.152;2023-03-23T05:32:36;12.40;73.90
947;DHT22;460;48.734;9.152;2023-03-23T05:35:03;12.40;73.90
947;DHT22;460;48.734;9.152;2023-03-23T05:37:38;12.40;73.50
947;DHT22;460;48.734;9.152;2023-03-23T05:40:06;12.40;74.10
947;DHT22;460;48.734;9.152;2023-03-23T05:42:33;12.40;73.60
947;DHT22;460;48.734;9.152;2023-03-23T05:45:11;12.50;73.70
947;DHT22;460;48.734;9.152;2023-03-23T05:47:38;12.50;73.60
947;DHT22;460;48.734;9.152;2023-03-23T05:50:06;12.50;73.90
947;DHT22;460;48.734;9.152;2023-03-23T05:52:35;12.50;73.90
947;DHT22;460;48.734;9.152;2023-03-23T05:55:04;12.50;73.60
947;DHT22;460;48.734;9.152;2023-03-23T05:57:31;12.50;73.90
947;DHT22;460;48.734;9.152;2023-03-23T05:59:58;12.50;73.80
947;DHT22;460;48.734;9.152;2023-03-23T06:02:26;12.50;73.80
947;DHT22;460;48.734;9.152;2023-03-23T06:04:57;12.60;73.70
947;DHT22;460;48.734;9.152;2023-03-23T06:07:25;12.70;73.20
947;DHT22;460;48.734;9.152;2023-03-23T06:09:52;12.70;73.50
947;DHT22;460;48.734;9.152;2023-03-23T06:12:19;12.70;73.60
947;DHT22;460;48.734;9.152;2023-03-23T06:14:46;12.80;73.20
947;DHT22;460;48.734;9.152;2023-03-23T06:17:14;12.70;73.20
947;DHT22;460;48.734;9.152;2023-03-23T06:19:43;12.80;72.90
947;DHT22;460;48.734;9.152;2023-03-23T06:22:11;12.80;73.30
947;DHT22;460;48.734;9.152;2023-03-23T06:24:38;12.80;73.80
947;DHT22;460;48.734;9.152;2023-03-23T06:27:04;12.80;72.80
947;DHT22;460;48.734;9.152;2023-03-23T06:29:31;12.80;73.10
947;DHT22;460;48.734;9.152;2023-03-23T06:32:00;12.80;73.60
947;DHT22;460;48.734;9.152;2023-03-23T06:34:28;12.80;73.90
947;DHT22;460;48.734;9.152;2023-03-23T06:37:04;12.90;74.00
947;DHT22;460;48.734;9.152;2023-03-23T06:39:31;12.80;73.60
947;DHT22;460;48.734;9.152;2023-03-23T06:41:58;12.80;76.00
947;DHT22;460;48.734;9.152;2023-03-23T06:44:25;12.70;74.20
947;DHT22;460;48.734;9.152;2023-03-23T06:46:57;12.80;76.60
947;DHT22;460;48.734;9.152;2023-03-23T06:49:24;12.90;74.30
947;DHT22;460;48.734;9.152;2023-03-23T06:51:51;12.90;73.20
947;DHT22;460;48.734;9.152;2023-03-23T06:54:19;13.00;72.90
947;DHT22;460;48.734;9.152;2023-03-23T06:56:46;13.10;73.20
947;DHT22;460;48.734;9.152;2023-03-23T06:59:18;13.10;73.50
947;DHT22;460;48.734;9.152;2023-03-23T07:01:44;13.20;74.00
947;DHT22;460;48.734;9.152;2023-03-23T07:04:12;13.40;79.50
947;DHT22;460;48.734;9.152;2023-03-23T07:06:39;13.30;73.30
947;DHT22;460;48.734;9.152;2023-03-23T07:09:06;13.30;73.40
947;DHT22;460;48.734;9.152;2023-03-23T07:11:34;13.40;72.80
947;DHT22;460;48.734;9.152;2023-03-23T07:14:01;13.50;73.00
947;DHT22;460;48.734;9.152;2023-03-23T07:16:28;13.50;72.60
947;DHT22;460;48.734;9.152;2023-03-23T07:18:55;13.40;72.20
947;DHT22;460;48.734;9.152;2023-03-23T07:21:22;13.50;72.10
947;DHT22;460;48.734;9.152;2023-03-23T07:23:56;13.50;72.30
947;DHT22;460;48.734;9.152;2023-03-23T07:26:23;13.50;72.80
947;DHT22;460;48.734;9.152;2023-03-23T07:28:52;13.50;73.10
947;DHT22;460;48.734;9.152;2023-03-23T07:31:20;13.50;73.50
947;DHT22;460;48.734;9.152;2023-03-23T07:33:53;13.50;72.30
947;DHT22;460;48.734;9.152;2023-03-23T07:36:20;13.50;74.10
947;DHT22;460;48.734;9.152;2023-03-23T07:38:47;13.40;73.70
947;DHT22;460;48.734;9.152;2023-03-23T07:41:14;13.50;73.50
947;DHT22;460;48.734;9.152;2023-03-23T07:43:42;13.80;75.70
947;DHT22;460;48.734;9.152;2023-03-23T07:46:11;13.60;72.30
947;DHT22;460;48.734;9.152;2023-03-23T07:48:38;13.70;72.20
947;DHT22;460;48.734;9.152;2023-03-23T07:51:06;13.70;72.80
947;DHT22;460;48.734;9.152;2023-03-23T07:53:34;13.80;72.60
947;DHT22;460;48.734;9.152;2023-03-23T07:56:05;13.80;73.00
947;DHT22;460;48.734;9.152;2023-03-23T07:58:33;13.90;73.80
947;DHT22;460;48.734;9.152;2023-03-23T08:01:00;14.00;73.20
947;DHT22;460;48.734;9.152;2023-03-23T08:03:28;14.10;73.20
947;DHT22;460;48.734;9.152;2023-03-23T08:57:34;14.70;75.40
947;DHT22;460;48.734;9.152;2023-03-23T09:00:04;14.60;75.90
947;DHT22;460;48.734;9.152;2023-03-23T09:02:41;14.70;76.20
947;DHT22;460;48.734;9.152;2023-03-23T09:12:31;15.10;76.60
947;DHT22;460;48.734;9.152;2023-03-23T09:15:00;15.10;75.20
947;DHT22;460;48.734;9.152;2023-03-23T09:17:30;15.20;76.00
947;DHT22;460;48.734;9.152;2023-03-23T09:19:57;15.20;75.30
947;DHT22;460;48.734;9.152;2023-03-23T09:22:24;15.20;75.30
947;DHT22;460;48.734;9.152;2023-03-23T09:24:51;15.20;75.40
947;DHT22;460;48.734;9.152;2023-03-23T19:59:39;14.30;75.40
947;DHT22;460;48.734;9.152;2023-03-23T20:09:39;14.20;75.80
947;DHT22;460;48.734;9.152;2023-03-23T20:12:06;14.20;76.10
947;DHT22;460;48.734;9.152;2023-03-23T20:14:34;14.20;76.30
947;DHT22;460;48.734;9.152;2023-03-23T20:17:02;14.20;76.10
947;DHT22;460;48.734;9.152;2023-03-23T20:19:29;14.30;75.90
947;DHT22;460;48.734;9.152;2023-03-23T20:25:42;14.20;76.30
947;DHT22;460;48.734;9.152;2023-03-23T20:28:33;14.20;76.30
947;DHT22;460;48.734;9.152;2023-03-23T20:31:12;14.20;76.90
947;DHT22;460;48.734;9.152;2023-03-23T20:34:17;14.10;76.90
947;DHT22;460;48.734;9.152;2023-03-23T20:40:42;14.00;77.20
947;DHT22;460;48.734;9.152;2023-03-23T20:43:34;14.00;77.50
947;DHT22;460;48.734;9.152;2023-03-23T20:46:11;14.00;77.50
947;DHT22;460;48.734;9.152;2023-03-23T20:48:39;14.00;77.20
947;DHT22;460;48.734;9.152;2023-03-23T20:55:40;14.00;77.50
947;DHT22;460;48.734;9.152;2023-03-23T20:58:34;14.00;77.40
947;DHT22;460;48.734;9.152;2023-03-23T21:01:03;13.90;77.20
947;DHT22;460;48.734;9.152;2023-03-23T21:03:39;13.90;77.80
947;DHT22;460;48.734;9.152;2023-03-23T21:06:07;13.90;77.60
947;DHT22;460;48.734;9.152;2023-03-23T21:08:37;13.90;77.40
947;DHT22;460;48.734;9.152;2023-03-23T21:15:02;13.80;77.70
947;DHT22;460;48.734;9.152;2023-03-23T21:21:07;13.80;78.30
947;DHT22;460;48.734;9.152;2023-03-23T21:23:35;13.80;78.00
947;DHT22;460;48.734;9.152;2023-03-23T21:26:09;13.80;78.20
947;DHT22;460;48.734;9.152;2023-03-23T21:28:36;13.80;78.40
947;DHT22;460;48.734;9.152;2023-03-23T21:31:06;13.80;78.40
947;DHT22;460;48.734;9.152;2023-03-23T21:33:34;13.80;78.50
947;DHT22;460;48.734;9.152;2023-03-23T21:36:12;13.70;78.10
947;DHT22;460;48.734;9.152;2023-03-23T21:38:39;13.70;78.60
947;DHT22;460;48.734;9.152;2023-03-23T21:45:00;13.70;78.70
947;DHT22;460;48.734;9.152;2023-03-23T21:47:27;13.70;79.30
947;DHT22;460;48.734;9.152;2023-03-23T21:50:00;13.70;78.90
947;DHT22;460;48.734;9.152;2023-03-23T21:56:10;13.60;78.90
947;DHT22;460;48.734;9.152;2023-03-23T21:58:39;13.60;79.40
947;DHT22;460;48.734;9.152;2023-03-23T22:05:00;13.50;79.30
947;DHT22;460;48.734;9.152;2023-03-23T22:07:28;13.50;79.50
947;DHT22;460;48.734;9.152;2023-03-23T22:10:03;13.50;79.80
947;DHT22;460;48.734;9.152;2023-03-23T22:12:35;13.50;79.90
947;DHT22;460;48.734;9.152;2023-03-23T22:15:05;13.50;80.10
947;DHT22;460;48.734;9.152;2023-03-23T22:17:35;13.40;80.80
947;DHT22;460;48.734;9.152;2023-03-23T22:20:10;13.40;81.30
947;DHT22;460;48.734;9.152;2023-03-23T22:22:44;13.30;82.70
947;DHT22;460;48.734;9.152;2023-03-23T22:25:19;13.30;82.00
947;DHT22;460;48.734;9.152;2023-03-23T22:27:56;13.20;82.50
947;DHT22;460;48.734;9.152;2023-03-23T22:30:32;13.20;82.00
947;DHT22;460;48.734;9.152;2023-03-23T22:33:00;13.20;82.20
947;DHT22;460;48.734;9.152;2023-03-23T22:35:31;13.20;82.30
947;DHT22;460;48.734;9.152;2023-03-23T22:38:05;13.20;82.50
947;DHT22;460;48.734;9.152;2023-03-23T22:40:41;13.20;84.30
947;DHT22;460;48.734;9.152;2023-03-23T22:43:12;13.20;86.20
947;DHT22;460;48.734;9.152;2023-03-23T22:45:42;13.20;84.90
947;DHT22;460;48.734;9.152;2023-03-23T22:48:12;13.20;86.60
947;DHT22;460;48.734;9.152;2023-03-23T22:50:44;13.10;84.60
947;DHT22;460;48.734;9.152;2023-03-23T22:53:17;12.90;86.50
947;DHT22;460;48.734;9.152;2023-03-23T22:55:45;12.90;88.20
947;DHT22;460;48.734;9.152;2023-03-23T22:58:19;12.80;89.30
947;DHT22;460;48.734;9.152;2023-03-23T23:00:58;12.80;88.00
947;DHT22;460;48.734;9.152;2023-03-23T23:03:30;12.90;88.60
947;DHT22;460;48.734;9.152;2023-03-23T23:06:00;12.90;88.90
947;DHT22;460;48.734;9.152;2023-03-23T23:08:30;12.90;87.10
947;DHT22;460;48.734;9.152;2023-03-23T23:11:01;12.90;87.40
947;DHT22;460;48.734;9.152;2023-03-23T23:13:40;13.00;88.50
947;DHT22;460;48.734;9.152;2023-03-23T23:16:10;12.90;88.10
947;DHT22;460;48.734;9.152;2023-03-23T23:18:38;12.90;86.80
947;DHT22;460;48.734;9.152;2023-03-23T23:21:12;12.90;88.70
947;DHT22;460;48.734;9.152;2023-03-23T23:23:40;13.00;88.80
947;DHT22;460;48.734;9.152;2023-03-23T23:30:05;12.90;88.80
947;DHT22;460;48.734;9.152;2023-03-23T23:36:04;12.70;90.50
947;DHT22;460;48.734;9.152;2023-03-23T23:38:31;12.80;90.50
947;DHT22;460;48.734;9.152;2023-03-23T23:40:58;12.80;90.00
947;DHT22;460;48.734;9.152;2023-03-23T23:43:24;12.90;88.40
947;DHT22;460;48.734;9.152;2023-03-23T23:45:53;12.90;90.30
947;DHT22;460;48.734;9.152;2023-03-23T23:48:21;13.00;90.60
947;DHT22;460;48.734;9.152;2023-03-23T23:50:49;12.90;91.50
947;DHT22;460;48.734;9.152;2023-03-23T23:53:16;12.90;91.40
947;DHT22;460;48.734;9.152;2023-03-23T23:55:47;13.00;91.80
947;DHT22;460;48.734;9.152;2023-03-23T23:58:14;12.90;91.90
